Ana Sayfa
METAR-TAF:

METAR-TAF

Havaalanları :

Mae Sot, Tayland

Enlem: 16-40N, Boylam: 098-33E, yükseklik: 196 m

Güncel hava durumu gözlemi

Rapor saat 10:00 UTC de 26 dakika önce yapıldı.
Rüzgar batıdan 8 kt
Sıcaklık 34°C
Nem 32%
Basınç 1008 hPa
Görüş mesafesi: 6000 m

METAR: VTPM 281000Z 26008KT 6000 NSC 34/15 Q1008 NOSIG

Saat: 17:26 (10:26 UTC)

Tahmin

Rapor saat 05:00 UTC de 5 saat ve 26 dakika önce yapıldı.
Ayın 28'si saat 06 UTC'den ayın 29'si saat 06 UTC'ye kadar geçerli Tahmin
Rüzgar batı/güneybatıdan 10 kt
Görüş mesafesi: 5000 m
3000 ft yükseklikte az bulutlu
Toz Pusu
Dönüşüyor
ayın 28'si saat 22 UTC'den ayın 28'si saat 24 UTC'ye kadar
Görüş mesafesi: 2000 m
Pus

TAF: VTPM 280500Z 2806/2906 25010KT 5000 HZ FEW030 BECMG 2822/2824 2000 BR

4.000'den fazla havaalanı için hava durumu gözlemleri ve tahminleri (METAR ve TAF raporları).

Kullanılabilir istasyonlar harita üzerinde sarı ve kırmızı noktalarla gösterilir.

İstasyonun adını görmek için fareyi noktanın üzerinde gezdirin.

Sonrasında hava gözlem ve tahminlerini görmek için tıklayın.

Haritayı değiştirmek için: yaklaştırmak için siyah artı işaretli yeşil düğmeye ve uzaklaştırmak için de eksi işaretli düğmeye hızla tıklayın; bitişik haritalar için yeşil okları kullanın.


METAR-TAF: